McIntyre, Pennsylvania
Current Conditions -  °F | °C
As of 11:35 AM on Thursday 29 Jan 2015 (Local Time) from KIDI Reporting Station
Scattered Clouds Scattered Clouds  
Wind Chill: 27°   Ceiling: Unl
Heat Index: 36°   Visibility: 10mi
Dew Point: 12°   Wind: 14mph
Humidity: 38%   Direction: 170°S
Pressure: 29.97"   Gusts: 20mph
Location:  40.57°N, 79.3°W
Report Text: KIDI 291635Z AUTO 17012G17KT 10SM SCT080 02/M11 A2997 RMK A01
Loading
Personal Weather Stations






























Interactive Weather Map New forecast layout! Learn more

10-Day Weather Forecast

Advertisements
Track Severe Weather on mobile